createdAt,value
2022-08-12T03:18:30.008Z,13.62
2022-08-12T03:21:57.856Z,13.52
2022-08-12T03:25:27.148Z,13.53
2022-08-12T03:28:50.643Z,13.52
2022-08-12T03:32:00.930Z,13.53
2022-08-12T03:35:40.605Z,13.52
2022-08-12T03:39:14.934Z,13.49
2022-08-12T03:42:36.428Z,13.48
2022-08-12T03:45:57.659Z,13.45
2022-08-12T03:49:19.601Z,13.41
2022-08-12T03:52:41.978Z,13.33
2022-08-12T03:56:02.932Z,13.30
2022-08-12T03:59:23.862Z,13.30
2022-08-12T04:02:35.049Z,13.24
2022-08-12T04:05:58.808Z,13.16
2022-08-12T04:09:14.562Z,13.10
2022-08-12T04:12:39.255Z,13.05
2022-08-12T04:15:51.841Z,13.01
2022-08-12T04:19:03.097Z,12.99
2022-08-12T04:22:13.328Z,12.92
2022-08-12T04:25:26.308Z,12.92
2022-08-12T04:28:38.715Z,12.96
2022-08-12T04:31:49.367Z,13.00
2022-08-12T04:35:01.264Z,12.97
2022-08-12T04:38:12.485Z,12.96
2022-08-12T04:41:25.242Z,12.93
2022-08-12T04:44:35.046Z,12.93
2022-08-12T04:47:56.569Z,12.98
2022-08-12T04:51:07.325Z,12.99
2022-08-12T04:54:21.400Z,13.01
2022-08-12T04:57:41.813Z,12.99
2022-08-12T06:21:46.685Z,15.64
2022-08-12T06:25:01.439Z,15.88
2022-08-12T06:28:19.461Z,16.07
2022-08-12T06:31:31.407Z,16.27
2022-08-12T06:35:23.002Z,16.42
2022-08-12T06:38:17.034Z,16.67
2022-08-12T06:41:39.092Z,16.90
2022-08-12T06:45:12.336Z,17.19
2022-08-12T06:48:23.596Z,17.41
2022-08-12T06:51:36.470Z,17.64
2022-08-12T06:54:46.230Z,17.88
2022-08-12T06:58:10.236Z,18.20
2022-08-12T07:01:22.928Z,18.50
2022-08-12T07:04:39.212Z,18.85
2022-08-12T07:07:49.367Z,19.14
2022-08-12T07:11:04.037Z,19.46
2022-08-12T07:14:18.151Z,19.85
2022-08-12T07:17:35.682Z,20.31
2022-08-12T07:20:52.982Z,20.89
2022-08-12T07:24:07.839Z,21.52
2022-08-12T07:27:17.631Z,21.94
2022-08-12T07:30:31.798Z,22.35
2022-08-12T07:33:45.522Z,22.62
2022-08-12T07:36:55.469Z,22.99
2022-08-12T07:40:06.033Z,23.27
2022-08-12T07:43:16.005Z,23.53
2022-08-12T07:46:31.141Z,23.78
2022-08-12T07:50:05.838Z,23.93
2022-08-12T07:53:10.724Z,24.23
2022-08-12T07:56:20.834Z,24.39
2022-08-12T07:59:35.737Z,24.62
2022-08-12T08:02:53.347Z,24.80
2022-08-12T08:06:18.693Z,25.01
2022-08-12T08:09:32.035Z,25.32
2022-08-12T08:12:52.777Z,25.47
2022-08-12T08:16:05.717Z,25.61
2022-08-12T08:19:22.792Z,25.81
2022-08-12T08:22:41.590Z,26.12
2022-08-12T08:25:52.559Z,26.56
2022-08-12T08:29:02.767Z,26.90
2022-08-12T08:32:14.317Z,27.30
2022-08-12T08:35:47.104Z,27.69
2022-08-12T08:39:00.113Z,28.09
2022-08-12T08:42:20.980Z,28.66
2022-08-12T08:45:38.544Z,29.09
2022-08-12T08:48:48.822Z,29.52
2022-08-12T08:51:59.940Z,29.86
2022-08-12T08:55:11.160Z,29.68
2022-08-12T08:58:21.692Z,29.50
2022-08-12T09:01:37.549Z,29.87
2022-08-12T09:05:13.106Z,29.96
2022-08-12T09:08:26.689Z,30.13
2022-08-12T09:12:06.673Z,30.45
2022-08-12T09:15:21.612Z,30.64
2022-08-12T09:18:33.603Z,30.70
2022-08-12T09:21:54.760Z,30.75
2022-08-12T09:25:07.127Z,31.22
2022-08-12T09:28:31.650Z,31.22
2022-08-12T09:32:03.402Z,31.66
2022-08-12T09:35:22.463Z,31.86
2022-08-12T09:38:39.454Z,31.93
2022-08-12T09:42:39.556Z,31.95
2022-08-12T09:46:11.274Z,31.93
2022-08-12T09:49:41.464Z,32.17
2022-08-12T09:53:06.389Z,32.55
2022-08-12T09:56:58.244Z,32.61
2022-08-12T10:00:17.453Z,32.75
2022-08-12T10:03:33.183Z,32.84
2022-08-12T10:06:54.280Z,32.59
2022-08-12T10:10:06.524Z,32.62
2022-08-12T10:13:42.078Z,32.28
2022-08-12T10:16:57.797Z,32.00
2022-08-12T10:20:10.034Z,32.13
2022-08-12T10:23:39.781Z,32.56
2022-08-12T10:27:05.792Z,32.01
2022-08-12T10:30:42.052Z,32.06
2022-08-12T10:34:06.258Z,32.02
2022-08-12T10:37:50.397Z,32.15
2022-08-12T10:41:03.978Z,32.34
2022-08-12T10:44:17.134Z,32.55
2022-08-12T10:48:15.888Z,32.72
2022-08-12T10:52:03.939Z,32.73
2022-08-12T10:54:39.646Z,32.51
2022-08-12T10:58:15.244Z,32.38
2022-08-12T11:03:01.490Z,32.56
2022-08-12T11:07:03.423Z,32.74
2022-08-12T11:08:43.640Z,32.47
2022-08-12T11:12:36.982Z,32.26
2022-08-12T11:16:03.238Z,31.84
2022-08-12T11:18:58.421Z,32.05
2022-08-12T11:22:13.077Z,32.65
2022-08-12T11:28:59.033Z,33.15
2022-08-12T11:32:11.731Z,33.12
2022-08-12T11:35:24.496Z,33.41
2022-08-12T11:38:36.661Z,34.05
2022-08-12T11:41:52.565Z,34.62
2022-08-12T11:45:10.433Z,34.80
2022-08-12T11:48:26.995Z,34.35
2022-08-12T11:51:39.656Z,33.77
2022-08-12T11:54:51.135Z,33.48
2022-08-12T11:58:42.266Z,33.45
2022-08-12T12:01:58.475Z,33.61
2022-08-12T12:05:02.554Z,33.95
2022-08-12T12:08:38.309Z,33.98
2022-08-12T12:11:51.792Z,33.91
2022-08-12T12:15:07.037Z,33.70
2022-08-12T12:18:30.658Z,33.73
2022-08-12T12:21:48.376Z,33.73
2022-08-12T12:25:13.328Z,33.93
2022-08-12T12:28:38.137Z,33.92
2022-08-12T12:32:09.842Z,34.03
2022-08-12T12:36:17.122Z,34.29
2022-08-12T12:38:56.155Z,34.43
2022-08-12T12:42:43.158Z,34.27
2022-08-12T12:45:44.308Z,34.80
2022-08-12T12:48:57.368Z,35.26
2022-08-12T12:52:19.835Z,35.01
2022-08-12T12:55:35.908Z,34.76
2022-08-12T12:58:46.908Z,34.64
2022-08-12T13:02:08.790Z,35.01
2022-08-12T13:05:21.495Z,34.68
2022-08-12T13:08:41.051Z,34.74
2022-08-12T13:11:53.248Z,35.29
2022-08-12T13:15:04.885Z,35.26
2022-08-12T13:18:17.069Z,35.36
2022-08-12T13:21:36.639Z,35.50
2022-08-12T13:24:56.249Z,35.89
2022-08-12T13:28:06.812Z,35.61
2022-08-12T13:31:16.946Z,35.33
2022-08-12T13:34:33.478Z,35.22
2022-08-12T13:37:55.203Z,35.26
2022-08-12T13:41:11.045Z,35.10
2022-08-12T13:44:26.217Z,35.28
2022-08-12T13:47:55.509Z,34.90
2022-08-12T13:51:05.472Z,34.79
2022-08-12T13:54:20.168Z,34.61
2022-08-12T13:57:44.699Z,34.93
2022-08-12T14:01:00.165Z,35.45
2022-08-12T14:04:13.108Z,35.81
2022-08-12T14:07:23.560Z,36.03
2022-08-12T14:10:51.170Z,35.94
2022-08-12T14:14:06.382Z,35.80
2022-08-12T14:17:23.180Z,35.35
2022-08-12T14:20:35.458Z,35.31
2022-08-12T14:24:05.414Z,35.63
2022-08-12T14:28:02.737Z,35.44
2022-08-12T14:30:59.608Z,34.83
2022-08-12T14:34:10.544Z,34.73
2022-08-12T14:37:57.475Z,35.15
2022-08-12T14:41:00.223Z,35.48
2022-08-12T14:44:59.817Z,35.52
2022-08-12T14:47:53.605Z,35.28
2022-08-12T14:53:26.743Z,35.30
2022-08-12T14:58:10.792Z,35.90
2022-08-12T15:01:34.480Z,35.70
2022-08-12T15:04:45.315Z,35.89
2022-08-12T15:08:04.865Z,36.11
2022-08-12T15:11:17.188Z,36.28
2022-08-12T15:14:31.753Z,36.10
2022-08-12T15:17:43.223Z,35.88
2022-08-12T15:21:03.503Z,35.66
2022-08-12T15:24:14.245Z,35.55
2022-08-12T15:27:31.622Z,35.49
2022-08-12T15:30:59.073Z,35.35
2022-08-12T15:34:10.995Z,35.06
2022-08-12T15:37:20.842Z,35.02
2022-08-12T15:40:53.828Z,35.24
2022-08-12T15:44:20.096Z,35.25
2022-08-12T15:47:47.890Z,34.74
2022-08-12T15:51:06.429Z,34.79
2022-08-12T15:54:30.872Z,34.89
2022-08-12T15:57:55.077Z,34.87
2022-08-12T16:01:06.765Z,34.72
2022-08-12T16:04:21.090Z,34.43
2022-08-12T16:07:36.914Z,34.35
2022-08-12T16:10:49.709Z,34.39
2022-08-12T16:14:00.175Z,34.44
2022-08-12T16:17:15.623Z,34.52
2022-08-12T16:20:34.273Z,34.29
2022-08-12T16:23:57.794Z,34.36
2022-08-12T16:27:07.921Z,34.51
2022-08-12T16:30:31.338Z,34.60
2022-08-12T16:33:59.328Z,34.55
2022-08-12T16:37:13.224Z,34.65
2022-08-12T16:40:25.974Z,34.66
2022-08-12T16:43:41.086Z,34.14
2022-08-12T16:46:57.876Z,33.56
2022-08-12T16:50:12.086Z,33.29
2022-08-12T16:53:30.821Z,33.22
2022-08-12T16:56:57.648Z,33.33
2022-08-12T17:00:11.395Z,33.49
2022-08-12T17:03:28.582Z,33.57
2022-08-12T17:06:43.308Z,33.65
2022-08-12T17:09:53.428Z,33.72
2022-08-12T17:13:10.111Z,33.63
2022-08-12T17:16:20.392Z,33.36
2022-08-12T17:20:02.562Z,33.30
2022-08-12T17:23:03.713Z,33.07
2022-08-12T17:26:30.859Z,32.73
2022-08-12T17:30:03.227Z,32.34
2022-08-12T17:33:24.841Z,32.07
2022-08-12T17:36:35.853Z,31.88
2022-08-12T17:40:13.528Z,31.54
2022-08-12T17:43:57.703Z,31.06
2022-08-12T17:46:53.906Z,30.78
2022-08-12T17:50:06.040Z,30.51
2022-08-12T17:53:18.145Z,30.14
2022-08-12T17:56:32.070Z,29.88
2022-08-12T17:59:48.830Z,29.65
2022-08-12T18:03:04.617Z,29.47
2022-08-12T18:06:15.617Z,29.25
2022-08-12T18:09:36.093Z,29.03
2022-08-12T18:12:52.373Z,28.76
2022-08-12T18:16:06.746Z,28.50
2022-08-12T18:19:19.349Z,28.36
2022-08-12T18:22:33.012Z,28.19
2022-08-12T18:26:15.390Z,28.07
2022-08-12T18:29:41.937Z,27.81
2022-08-12T18:32:59.022Z,27.56
2022-08-12T18:36:13.090Z,27.30
2022-08-12T18:39:23.418Z,27.11
2022-08-12T18:42:32.597Z,26.89
2022-08-12T18:45:46.952Z,26.63
2022-08-12T18:49:18.762Z,26.41
2022-08-12T18:52:34.951Z,26.21
2022-08-12T18:55:53.774Z,26.05
2022-08-12T18:59:10.425Z,25.85
2022-08-12T19:02:22.522Z,25.61
2022-08-12T19:05:54.267Z,25.40
2022-08-12T19:09:09.979Z,25.14
2022-08-12T19:12:32.489Z,24.96
2022-08-12T19:15:45.332Z,24.70
2022-08-12T19:18:58.809Z,24.41
2022-08-12T19:22:08.873Z,24.11
2022-08-12T19:26:00.714Z,23.94
2022-08-12T19:29:01.244Z,23.75
2022-08-12T19:32:13.966Z,23.59
2022-08-12T19:36:23.892Z,23.41
2022-08-12T19:38:57.873Z,23.19
2022-08-12T19:42:09.250Z,23.03
2022-08-12T19:45:20.680Z,22.89
2022-08-12T19:48:34.682Z,22.83
2022-08-12T19:51:49.547Z,22.66
2022-08-12T19:55:00.110Z,22.50
2022-08-12T19:58:18.174Z,22.27
2022-08-12T20:01:33.835Z,22.00
2022-08-12T20:06:04.779Z,21.91
2022-08-12T20:08:34.504Z,21.85
2022-08-12T20:12:14.635Z,21.71
2022-08-12T20:15:26.131Z,21.52
2022-08-12T20:18:44.511Z,21.28
2022-08-12T20:22:14.291Z,21.03
2022-08-12T20:25:28.151Z,20.87
2022-08-12T20:28:54.768Z,20.77
2022-08-12T20:32:09.433Z,20.66
2022-08-12T20:36:07.022Z,20.54
2022-08-12T20:38:56.030Z,20.34
2022-08-12T20:42:08.487Z,20.22
2022-08-12T20:45:18.301Z,20.14
2022-08-12T20:48:29.687Z,20.16
2022-08-12T20:51:55.197Z,20.13
2022-08-12T20:55:15.606Z,20.04
2022-08-12T20:58:35.771Z,19.97
2022-08-12T21:01:48.937Z,19.88
2022-08-12T21:05:19.496Z,19.74
2022-08-12T21:08:32.924Z,19.52
2022-08-12T21:11:43.558Z,19.31
2022-08-12T21:15:16.998Z,19.17
2022-08-12T21:18:35.587Z,19.01
2022-08-12T21:21:49.973Z,18.91
2022-08-12T21:25:02.139Z,18.83
2022-08-12T21:28:30.757Z,18.74
2022-08-12T21:32:38.016Z,18.65
2022-08-12T21:35:17.447Z,18.55
2022-08-12T21:38:37.241Z,18.43
2022-08-12T21:41:50.983Z,18.35
2022-08-12T21:45:45.887Z,18.27
2022-08-12T21:48:31.518Z,18.18
2022-08-12T21:51:49.751Z,18.09
2022-08-12T21:55:01.515Z,17.95
